« Back
NWS Peachtree City, Ga » Text Product » CSG Terminal Aerodrome Forecast


Printer-friendly Version
Current Version              Previous Versions:   1  2  3  4  5  6  7  8  9  

Terminal Aerodrome Forecast

398
FTUS42 KFFC 271745
TAFCSG
TAF
KCSG 271745Z 2718/2818 35008KT P6SM FEW250
     FM280000 01005KT P6SM SCT250
     FM280900 06007KT P6SM SCT020
     FM281500 08010G16KT P6SM SCT030=

USA.gov is the U.S. government's official web portal to all federal, state and local government web resources and services.